AirBox status report


DeploymentNumber of DevicesDetailAvg. TemperatureAvg. HumidityAvg. PM2.5Version
1 Edimax AirBox (Taipei, 2016) [15.48% (24/155)] [HTML] [JSON] [Dataset A]25.81℃ 109.46% 7.04 μg/m3 2019-03-19T14:41:29Z
2 Edimax AirBox (New Taipei, 2016) [27.85% (83/298)] [HTML] [JSON] [Dataset B]24.62℃ 96% 12.12 μg/m3 2019-03-19T14:41:29Z
3 Edimax AirBox (Taoyuan, 2017) [26.81% (63/235)] [HTML] [JSON] [Dataset A]25.02℃ 93.52% 19.9 μg/m3 2019-03-19T14:41:30Z
4 Edimax AirBox (Taichung, 2016) [71.12% (165/232)] [HTML] [JSON] [Dataset B]27.39℃ 93.08% 48.25 μg/m3 2019-03-19T14:41:30Z
5 Edimax AirBox (Tainan, 2016) [46.26% (99/214)] [HTML] [JSON] [Dataset B]27.73℃ 93.96% 46.97 μg/m3 2019-03-19T14:41:30Z
6 Edimax AirBox (Kaohsiung, 2016) [41.32% (100/242)] [HTML] [JSON] [Dataset B]29.38℃ 91.28% 47.75 μg/m3 2019-03-19T14:41:30Z
7 Edimax AirBox (Korea) 100% (983/983) [HTML] [JSON] [Dataset Z]16.3℃ 59.89% 44.09 μg/m3 2019-03-19T14:41:32Z
8 Edimax AirBox (LASS) [5.41% (4/74)] [HTML] [JSON] [Dataset A]28.97℃ 82.75% 35 μg/m3 2019-03-19T14:41:32Z
9 Edimax AirBox (TaichungZero) [53.38% (79/148)] [HTML] [JSON] [Dataset A]27.52℃ 92.65% 47.11 μg/m3 2019-03-19T14:41:32Z
10 Edimax AirBox (TaoyuanFirst) [44.44% (12/27)] [HTML] [JSON] [Dataset A]24.87℃ 93.42% 22.25 μg/m3 2019-03-19T14:41:32Z
11 Edimax AirBox (other) 100% (1081/1081) [HTML] [JSON] [Dataset A]25.25℃ 96% 34 μg/m3 2019-03-19T14:41:32Z
12 LASS AirBox (Hsinchu, 2017) [38% (19/50)] [HTML] [JSON] [Dataset A]26.16℃ 89.79% 28.53 μg/m3 2019-03-19T14:41:30Z
13 LASS AirBox (Yunlin, 2017) [35.75% (69/193)] [HTML] [JSON] [Dataset A]28.16℃ 93.71% 50.35 μg/m3 2019-03-19T14:41:30Z
14 LASS AirBox (Chiayi, 2017) [39.22% (20/51)] [HTML] [JSON] [Dataset A]28.91℃ 90.05% 66.15 μg/m3 2019-03-19T14:41:30Z
15 LASS AirBox (Chiayi County, 2017) [32.22% (58/180)] [HTML] [JSON] [Dataset A]27.36℃ 92.91% 54.97 μg/m3 2019-03-19T14:41:30Z
16 LASS AirBox (Kinmen, 2017) [11.54% (3/26)] [HTML] [JSON] [Dataset A]22.79℃ 100% 44 μg/m3 2019-03-19T14:41:30Z
17 LASS AirBox (Hsinchu County, 2018) [53.33% (72/135)] [HTML] [JSON] [Dataset A]24.71℃ 79.79% 37.82 μg/m3 2019-03-19T14:41:31Z
18 LASS AirBox (Yilan, 2018) [51.26% (61/119)] [HTML] [JSON] [Dataset A]23.77℃ 88.67% 32.75 μg/m3 2019-03-19T14:41:30Z
19 LASS AirBox (Hualien, 2018) [24.6% (31/126)] [HTML] [JSON] [Dataset A]24.66℃ 90.87% 31.29 μg/m3 2019-03-19T14:41:30Z
20 LASS AirBox (Pingtung, 2018) [43.04% (99/230)] [HTML] [JSON] [Dataset A]29℃ 81.28% 66.41 μg/m3 2019-03-19T14:41:30Z
21 LASS AirBox (Penghu, 2018) [35.29% (18/51)] [HTML] [JSON] [Dataset A]26.13℃ 92.72% 35.56 μg/m3 2019-03-19T14:41:31Z
22 LASS AirBox (Keelung, 2018) [25.42% (15/59)] [HTML] [JSON] [Dataset A]24.17℃ 83% 20.87 μg/m3 2019-03-19T14:41:31Z
23 LASS AirBox (Taitung, 2018) [40.68% (48/118)] [HTML] [JSON] [Dataset A]25.63℃ 85.46% 6.44 μg/m3 2019-03-19T14:41:31Z
24 LASS AirBox (Miaoli, 2018) [69.18% (110/159)] [HTML] [JSON] [Dataset A]22.98℃ 80.85% 46.88 μg/m3 2019-03-19T14:41:31Z
25 LASS AirBox (Matsu, 2018) [25% (2/8)] [HTML] [JSON] [Dataset A]16.31℃ 96.5% 51.5 μg/m3 2019-03-19T14:41:31Z
26 LASS AirBox (Kaohsiung, 2018) [70.83% (238/336)] [HTML] [JSON] [Dataset A]28.53℃ 71.09% 57.21 μg/m3 2019-03-19T14:41:31Z
27 LASS AirBox (NewTaipei, 2018) [46.13% (149/323)] [HTML] [JSON] [Dataset A]24.17℃ 78.17% 16.14 μg/m3 2019-03-19T14:41:31Z
28 LASS AirBox (EPA, 2019) 0% (0/39) [HTML] [JSON] [Dataset A]0℃ 0% 0 μg/m3 2019-03-19T14:41:31Z
29 LASS (LASS FT) 100% (90/90) [HTML] [JSON] [Dataset C]23.11℃ 83.6% 39.13 μg/m3 2019-03-19T14:41:32Z
30 LASS (LASS4U) 100% (43/43) [HTML] [JSON] [Dataset D]23.65℃ 73.31% 31.51 μg/m3 2019-03-19T14:41:32Z
31 MAPS (WiFi) [3.45% (3/87)] [HTML] [JSON] [Dataset E]18.18℃ 40% 40.67 μg/m3 2019-03-19T14:41:32Z
32 MAPS (RESCUE_TW) [12.5% (4/32)] [HTML] [JSON] [Dataset K]22.13℃ 55.58% 23.25 μg/m3 2019-03-19T14:41:32Z
33 MAPS (RESCUE_TWKH) [35% (7/20)] [HTML] [JSON] [Dataset K]29.7℃ 43.17% 46.29 μg/m3 2019-03-19T14:41:32Z
34 MAPS (other) 100% (2/2) [HTML] [JSON] [Dataset E]25.94℃ 50% 13 μg/m3 2019-03-19T14:41:32Z
35 PiM25 100% (1/1) [HTML] [JSON] [Dataset N]19℃ 83% 9 μg/m3 2019-03-19T14:41:32Z
36 ASLUNG 100% (1/1) [HTML] [JSON] [Dataset F]26.5℃ 68% 47 μg/m3 2019-03-19T14:41:32Z
37 *AirQ 100% (147/147) [HTML] [JSON] [Dataset J]0℃ 0% 40.64 μg/m3 2019-03-19T14:41:32Z
38 *AirU 100% (745/745) [HTML] [JSON] [Dataset L]0℃ 0% 14.53 μg/m3 2019-03-19T14:41:32Z
39 ITRI_PM25 10.67% (24/225) [HTML] [JSON] [Dataset M]0℃ 0% 14.63 μg/m3 2019-03-19T14:41:32Z
40 *Asus AirBox 100% (26/26) [HTML] [JSON] [Dataset G]24.65℃ 75.66% 57.62 μg/m3 2019-03-19T14:41:32Z
41 *gov Indie N/A (0/0) [HTML] [JSON] [Dataset H]0℃ 0% 0 μg/m3 2019-03-19T14:41:32Z
42 *ProbeCube 100% (3/3) [HTML] [JSON] [Dataset I]24.3℃ 70.4% 0 μg/m3 2019-03-19T14:41:32Z
43 Total 65.64% (4801/7314)

Resource:

Note: